Time;durP1;ratioP1;P1;durP2;ratioP2;P2;SDS_P1;SDS_P2;PMS_P1;PMS_P2;Temp;Humidity;BMP_temperature;BMP_pressure;BME280_temperature;BME280_humidity;BME280_pressure;Samples;Min_cycle;Max_cycle;Signal;HPM_P1;HPM_P2
2023/08/04 00:00:15;;;;;;;3.15;2.45;;;;;;;28.13;52.84;99105.72;5112598;28;20032;-79
2023/08/04 00:02:41;;;;;;;2.63;2.00;;;;;;;27.99;53.29;99093.53;5111894;28;20024;-79
2023/08/04 00:05:07;;;;;;;3.72;1.98;;;;;;;28.00;53.30;99108.78;5112080;28;20142;-78
2023/08/04 00:07:34;;;;;;;2.55;1.90;;;;;;;27.99;53.34;99101.66;5112301;28;20034;-79
2023/08/04 00:09:59;;;;;;;6.22;2.08;;;;;;;27.97;53.86;99114.50;5144998;27;20097;-78
2023/08/04 00:12:25;;;;;;;3.13;1.90;;;;;;;27.92;54.22;99123.06;5111824;28;20031;-79
2023/08/04 00:14:51;;;;;;;2.85;2.25;;;;;;;27.80;53.86;99108.81;5111528;28;20039;-79
2023/08/04 00:17:16;;;;;;;6.97;2.65;;;;;;;27.71;54.46;99125.97;5110675;28;20493;-78
2023/08/04 00:19:43;;;;;;;4.95;2.33;;;;;;;27.73;54.72;99113.16;5111931;28;20076;-78
2023/08/04 00:22:08;;;;;;;2.33;1.63;;;;;;;27.67;54.40;99094.78;5112454;28;20028;-79
2023/08/04 00:24:34;;;;;;;3.92;2.15;;;;;;;27.75;54.20;99113.00;5111136;28;20054;-79
2023/08/04 00:27:01;;;;;;;2.05;1.65;;;;;;;27.50;54.65;99093.69;5111469;28;20035;-79
2023/08/04 00:29:27;;;;;;;3.00;1.90;;;;;;;27.81;54.40;99132.22;5111824;28;20111;-79
2023/08/04 00:31:52;;;;;;;4.28;2.92;;;;;;;27.65;54.55;99111.19;5111663;28;20023;-79
2023/08/04 00:34:18;;;;;;;3.33;2.08;;;;;;;27.82;54.61;99124.94;5111411;28;20027;-79
2023/08/04 00:36:45;;;;;;;2.90;1.63;;;;;;;27.73;54.62;99105.03;5111291;28;20598;-78
2023/08/04 00:39:10;;;;;;;3.63;2.22;;;;;;;27.37;54.74;99088.56;5111485;28;20489;-79
2023/08/04 00:41:36;;;;;;;2.72;2.13;;;;;;;27.44;55.52;99121.34;5111342;28;20076;-79
2023/08/04 00:44:02;;;;;;;3.00;1.90;;;;;;;27.21;56.08;99124.31;5111526;28;20034;-79
2023/08/04 00:46:29;;;;;;;5.50;3.30;;;;;;;26.79;56.96;99108.38;5111248;28;20508;-79
2023/08/04 00:48:56;;;;;;;4.85;3.25;;;;;;;26.86;57.24;99125.72;5109661;28;20477;-79
2023/08/04 00:51:22;;;;;;;3.90;2.42;;;;;;;26.80;57.08;99115.47;5111054;28;20042;-78
2023/08/04 00:53:48;;;;;;;3.90;2.47;;;;;;;26.86;57.16;99114.91;5111262;28;20378;-79
2023/08/04 00:56:14;;;;;;;5.20;2.83;;;;;;;26.69;57.66;99112.91;5110933;28;20164;-79
2023/08/04 00:58:40;;;;;;;3.50;2.28;;;;;;;26.90;57.37;99132.56;5109601;28;20040;-79
2023/08/04 01:01:05;;;;;;;3.67;2.50;;;;;;;26.91;57.21;99123.47;5111377;28;20066;-78
2023/08/04 01:03:32;;;;;;;3.28;2.95;;;;;;;26.85;57.88;99134.88;5101882;28;20082;-78
2023/08/04 01:06:17;;;;;;;3.45;2.45;;;;;;;26.79;58.04;99143.53;5103499;28;20502;-78
2023/08/04 01:08:53;;;;;;;3.33;2.33;;;;;;;26.70;58.21;99133.56;5102842;27;20040;-78
2023/08/04 01:11:24;;;;;;;2.40;2.05;;;;;;;26.55;58.38;99108.72;5110843;28;20119;-78
2023/08/04 01:13:51;;;;;;;4.15;1.92;;;;;;;26.57;58.15;99126.53;5109628;28;20039;-78
2023/08/04 01:16:17;;;;;;;4.43;2.30;;;;;;;26.60;58.08;99137.06;5110902;28;20056;-78
2023/08/04 01:18:42;;;;;;;4.57;1.92;;;;;;;26.29;58.92;99120.06;5110918;28;20114;-78
2023/08/04 01:21:07;;;;;;;4.30;2.22;;;;;;;26.40;58.73;99129.88;5110304;28;20023;-78
2023/08/04 01:23:33;;;;;;;4.38;3.08;;;;;;;26.48;58.49;99129.19;5110295;28;20038;-78
2023/08/04 01:26:00;;;;;;;4.45;2.55;;;;;;;26.50;58.68;99144.28;5110692;28;20511;-78
2023/08/04 01:28:28;;;;;;;2.08;1.65;;;;;;;26.44;58.77;99131.31;5110363;28;20055;-78
2023/08/04 01:30:57;;;;;;;1.90;1.50;;;;;;;26.39;59.50;99131.75;5110801;28;20034;-78
2023/08/04 01:33:22;;;;;;;3.50;2.42;;;;;;;26.29;59.62;99136.28;5110486;28;20459;-78
2023/08/04 01:35:52;;;;;;;3.15;2.03;;;;;;;26.16;60.48;99146.47;5109811;28;20061;-78
2023/08/04 01:38:17;;;;;;;4.00;2.22;;;;;;;26.26;60.52;99160.88;5109233;28;20035;-79
2023/08/04 01:40:43;;;;;;;3.70;2.15;;;;;;;26.19;60.58;99135.38;5091603;28;20115;-78
2023/08/04 01:43:09;;;;;;;3.33;2.28;;;;;;;26.08;61.37;99155.25;5102741;28;20044;-78
2023/08/04 01:45:34;;;;;;;2.92;1.90;;;;;;;25.81;61.27;99116.16;5110313;28;20027;-78
2023/08/04 01:48:00;;;;;;;2.72;2.10;;;;;;;26.20;60.91;99150.63;5110619;28;20028;-78
2023/08/04 01:50:25;;;;;;;6.60;3.35;;;;;;;26.01;60.85;99135.16;5109890;28;20038;-78
2023/08/04 01:52:51;;;;;;;4.35;2.42;;;;;;;26.25;60.46;99167.28;5110153;28;20027;-78
2023/08/04 01:55:17;;;;;;;2.55;2.15;;;;;;;26.31;60.06;99164.03;5110550;28;20047;-78
2023/08/04 01:57:42;;;;;;;2.38;2.08;;;;;;;26.38;59.60;99143.53;5110696;28;20038;-78
2023/08/04 02:00:08;;;;;;;3.42;2.25;;;;;;;26.41;59.09;99150.53;5110039;28;20035;-78
2023/08/04 02:02:34;;;;;;;3.63;2.00;;;;;;;26.54;58.97;99177.31;5110285;28;20024;-78
2023/08/04 02:04:59;;;;;;;4.90;2.60;;;;;;;26.67;58.56;99182.53;5108783;28;20023;-78
2023/08/04 02:07:24;;;;;;;2.88;2.03;;;;;;;26.56;58.73;99168.06;5109955;28;20515;-78
2023/08/04 02:09:52;;;;;;;3.38;2.00;;;;;;;26.67;58.42;99177.97;5110398;28;20016;-78
2023/08/04 02:12:18;;;;;;;4.75;2.33;;;;;;;26.63;58.50;99177.34;5110337;28;20038;-78
2023/08/04 02:14:43;;;;;;;3.72;2.28;;;;;;;26.58;58.39;99168.78;5110003;28;20032;-78
2023/08/04 02:17:09;;;;;;;2.92;2.10;;;;;;;26.50;58.87;99160.53;5109587;28;20039;-78
2023/08/04 02:19:34;;;;;;;2.97;2.25;;;;;;;26.63;58.59;99163.84;5090653;28;20061;-79
2023/08/04 02:21:59;;;;;;;3.10;2.22;;;;;;;26.65;58.32;99185.34;5101516;28;20036;-78
2023/08/04 02:24:25;;;;;;;5.60;2.20;;;;;;;26.68;58.29;99193.22;5110052;28;20034;-78
2023/08/04 02:26:50;;;;;;;4.10;2.13;;;;;;;26.38;57.58;99146.25;5109895;28;20206;-78
2023/08/04 02:29:16;;;;;;;3.35;2.03;;;;;;;26.68;57.26;99195.03;5110257;28;20023;-78
2023/08/04 02:31:41;;;;;;;4.10;2.95;;;;;;;26.55;57.70;99192.56;5109934;28;20061;-78
2023/08/04 02:34:07;;;;;;;4.30;2.30;;;;;;;26.51;57.30;99191.97;5109780;28;20028;-78
2023/08/04 02:36:33;;;;;;;13.07;2.97;;;;;;;26.33;57.35;99177.41;5109982;28;20031;-78
2023/08/04 02:38:58;;;;;;;6.72;2.80;;;;;;;26.37;57.90;99193.22;5109864;28;20035;-78
2023/08/04 02:41:24;;;;;;;3.42;2.38;;;;;;;26.23;57.84;99196.28;5111800;28;20067;-78
2023/08/04 02:43:49;;;;;;;4.03;2.38;;;;;;;26.24;58.02;99179.94;5113545;28;20024;-78
2023/08/04 02:46:15;;;;;;;2.80;1.95;;;;;;;26.34;57.81;99192.63;5113849;28;20034;-78
2023/08/04 02:48:40;;;;;;;4.35;2.55;;;;;;;26.20;58.33;99188.47;5113386;28;20544;-78
2023/08/04 02:51:12;;;;;;;4.32;2.70;;;;;;;26.30;58.54;99199.31;5111811;28;20040;-78
2023/08/04 02:53:46;;;;;;;1.83;1.67;;;;;;;26.43;57.96;99211.59;5112885;27;20571;-78
2023/08/04 02:56:16;;;;;;;6.07;2.97;;;;;;;26.34;57.97;99200.75;5098557;28;20032;-78
2023/08/04 02:58:43;;;;;;;4.07;2.30;;;;;;;26.13;58.03;99188.13;5092782;28;20040;-78
2023/08/04 03:01:09;;;;;;;9.02;1.92;;;;;;;26.12;58.20;99185.56;5106748;28;20070;-79
2023/08/04 03:03:35;;;;;;;3.53;2.28;;;;;;;26.08;58.85;99203.91;5113584;28;20144;-79
2023/08/04 03:06:01;;;;;;;3.50;2.08;;;;;;;26.01;58.46;99189.19;5111956;28;20043;-79
2023/08/04 03:08:28;;;;;;;2.47;1.75;;;;;;;26.09;58.67;99221.84;5113087;28;20034;-79
2023/08/04 03:10:54;;;;;;;3.30;2.13;;;;;;;25.97;58.52;99194.00;5112150;28;20066;-80
2023/08/04 03:13:20;;;;;;;3.10;2.03;;;;;;;26.09;58.63;99217.28;5113066;27;20102;-80
2023/08/04 03:15:45;;;;;;;3.75;2.25;;;;;;;26.01;58.44;99203.59;5112340;28;20038;-81
2023/08/04 03:18:12;;;;;;;4.03;2.47;;;;;;;26.15;58.42;99225.81;5112135;28;20047;-81
2023/08/04 03:20:39;;;;;;;4.30;2.35;;;;;;;26.13;58.50;99220.56;5112687;28;20135;-81
2023/08/04 03:23:06;;;;;;;4.50;2.03;;;;;;;26.00;58.40;99196.47;5111764;28;20031;-81
2023/08/04 03:25:32;;;;;;;4.20;1.98;;;;;;;26.23;58.49;99232.28;5144782;27;20046;-79
2023/08/04 03:27:58;;;;;;;4.97;2.13;;;;;;;26.15;58.45;99212.31;5111385;28;20031;-80
2023/08/04 03:30:24;;;;;;;2.40;2.20;;;;;;;26.19;58.55;99235.38;5111525;28;20103;-80
2023/08/04 03:32:49;;;;;;;4.18;2.42;;;;;;;25.98;58.95;99206.56;5111708;28;20055;-79
2023/08/04 03:35:15;;;;;;;13.85;2.08;;;;;;;26.04;59.33;99233.03;5111905;28;20153;-81
2023/08/04 03:37:40;;;;;;;4.75;1.80;;;;;;;26.21;58.93;99234.28;5111025;28;20034;-79
2023/08/04 03:40:07;;;;;;;5.65;3.40;;;;;;;25.97;58.75;99203.94;5111592;28;20539;-79
2023/08/04 03:42:38;;;;;;;2.63;1.40;;;;;;;26.24;58.67;99236.72;5111854;28;20137;-79
2023/08/04 03:45:05;;;;;;;3.47;2.53;;;;;;;26.05;58.67;99206.88;5110993;28;20038;-79
2023/08/04 03:47:30;;;;;;;4.47;2.88;;;;;;;26.16;58.85;99223.00;5111663;28;20034;-80
2023/08/04 03:49:56;;;;;;;9.13;2.70;;;;;;;26.30;58.90;99243.41;5110560;28;20040;-80
2023/08/04 03:52:22;;;;;;;3.80;2.75;;;;;;;26.30;58.72;99237.16;5145201;27;20089;-79
2023/08/04 03:54:48;;;;;;;6.03;2.45;;;;;;;26.18;59.33;99245.34;5112601;28;20119;-79
2023/08/04 03:57:14;;;;;;;3.72;2.20;;;;;;;26.06;60.40;99257.22;5112212;28;20053;-80
2023/08/04 03:59:40;;;;;;;3.35;2.20;;;;;;;26.06;59.91;99232.91;5111690;28;20084;-79
2023/08/04 04:02:05;;;;;;;3.22;2.15;;;;;;;26.06;60.42;99236.47;5110425;28;20509;-80
2023/08/04 04:04:31;;;;;;;3.25;2.50;;;;;;;26.01;60.62;99224.31;5112734;27;20038;-79
2023/08/04 04:06:57;;;;;;;3.97;2.58;;;;;;;26.22;60.09;99244.06;5111500;28;20489;-79
2023/08/04 04:09:22;;;;;;;3.88;2.78;;;;;;;26.17;60.04;99235.53;5111515;28;20031;-79
2023/08/04 04:11:48;;;;;;;3.53;3.22;;;;;;;26.36;60.03;99264.50;5111678;28;20023;-78
2023/08/04 04:14:13;;;;;;;3.63;2.08;;;;;;;26.51;59.84;99258.72;5111266;28;20040;-78
2023/08/04 04:16:38;;;;;;;2.95;2.03;;;;;;;26.30;59.95;99240.69;5144524;27;20342;-79
2023/08/04 04:19:04;;;;;;;3.67;2.33;;;;;;;26.55;59.14;99247.50;5111727;28;20027;-78
2023/08/04 04:21:29;;;;;;;5.90;2.30;;;;;;;26.54;59.12;99247.63;5110197;28;20030;-79
2023/08/04 04:23:55;;;;;;;3.88;2.67;;;;;;;26.55;59.34;99260.16;5111529;28;20031;-80
2023/08/04 04:26:20;;;;;;;4.10;2.20;;;;;;;26.66;58.89;99249.25;5112069;28;20069;-79
2023/08/04 04:28:46;;;;;;;6.50;3.72;;;;;;;26.71;59.30;99248.84;5110839;28;20409;-80
2023/08/04 04:31:11;;;;;;;3.90;3.03;;;;;;;26.87;59.61;99264.59;5111131;27;20032;-80
2023/08/04 04:33:36;;;;;;;6.45;2.33;;;;;;;26.84;59.03;99259.44;5111612;28;20028;-80
2023/08/04 04:36:02;;;;;;;4.22;2.50;;;;;;;26.89;58.35;99236.38;5111229;28;20023;-79
2023/08/04 04:38:28;;;;;;;4.93;2.88;;;;;;;27.31;57.45;99257.88;5111296;28;20039;-80
2023/08/04 04:40:57;;;;;;;4.50;2.58;;;;;;;27.29;57.70;99259.81;5111022;27;20484;-80
2023/08/04 04:43:23;;;;;;;2.97;2.05;;;;;;;27.34;57.63;99272.97;5111062;28;20107;-80
2023/08/04 04:45:50;;;;;;;3.67;2.45;;;;;;;27.26;57.53;99253.84;5110738;28;20535;-80
2023/08/04 04:48:15;;;;;;;3.75;2.60;;;;;;;27.20;56.81;99268.78;5109649;28;20412;-80
2023/08/04 04:50:41;;;;;;;4.45;2.33;;;;;;;27.14;57.00;99272.91;5102845;28;20119;-79
2023/08/04 04:53:06;;;;;;;3.50;2.75;;;;;;;26.97;56.81;99258.22;5101290;28;20032;-79
2023/08/04 04:55:32;;;;;;;4.05;2.20;;;;;;;27.03;56.24;99245.94;5096314;28;20050;-79
2023/08/04 04:57:59;;;;;;;4.90;2.53;;;;;;;27.31;55.82;99265.09;5098514;28;20059;-80
2023/08/04 05:00:24;;;;;;;2.15;1.70;;;;;;;27.32;56.00;99280.38;5102611;28;20043;-79
2023/08/04 05:02:49;;;;;;;4.00;3.00;;;;;;;27.43;55.49;99277.53;5094785;28;20101;-80
2023/08/04 05:05:15;;;;;;;5.55;2.70;;;;;;;27.61;55.16;99271.44;5112997;27;20040;-80
2023/08/04 05:07:40;;;;;;;4.80;3.25;;;;;;;27.64;55.06;99271.16;5095170;28;20111;-80
2023/08/04 05:10:06;;;;;;;4.93;3.15;;;;;;;27.74;54.32;99284.69;5094020;28;20103;-79
2023/08/04 05:12:32;;;;;;;4.53;2.50;;;;;;;27.92;54.31;99292.94;5092157;27;20039;-80
2023/08/04 05:14:57;;;;;;;8.15;3.60;;;;;;;27.92;53.54;99291.09;5095345;28;20043;-80
2023/08/04 05:17:23;;;;;;;6.63;4.25;;;;;;;27.97;53.19;99274.41;5097553;28;20031;-78
2023/08/04 05:19:48;;;;;;;4.70;2.40;;;;;;;28.18;52.67;99271.53;5096223;28;20513;-80
2023/08/04 05:22:13;;;;;;;3.42;2.53;;;;;;;28.22;52.67;99281.06;5095065;28;20069;-81
2023/08/04 05:24:39;;;;;;;6.00;2.55;;;;;;;28.29;52.28;99284.91;5131063;27;20035;-79
2023/08/04 05:27:04;;;;;;;4.18;2.55;;;;;;;28.42;51.73;99273.72;5095378;28;20103;-80
2023/08/04 05:29:30;;;;;;;3.53;1.95;;;;;;;28.60;51.83;99290.13;5092247;28;20027;-80
2023/08/04 05:31:55;;;;;;;4.80;2.95;;;;;;;29.00;50.72;99288.09;5098366;28;20031;-79
2023/08/04 05:34:21;;;;;;;3.63;2.53;;;;;;;28.93;50.13;99274.25;5097563;28;20120;-80
2023/08/04 05:36:46;;;;;;;3.47;2.58;;;;;;;29.10;48.67;99275.31;5095843;28;20516;-79
2023/08/04 05:39:12;;;;;;;3.75;2.92;;;;;;;29.11;48.73;99272.44;5097969;28;20028;-79
2023/08/04 05:41:37;;;;;;;3.90;2.60;;;;;;;29.15;49.44;99293.84;5126569;27;20142;-80
2023/08/04 05:44:03;;;;;;;5.60;2.33;;;;;;;29.27;48.89;99290.81;5091771;28;20032;-79
2023/08/04 05:46:29;;;;;;;3.33;2.50;;;;;;;29.62;47.89;99277.41;5096065;28;20454;-79
2023/08/04 05:48:54;;;;;;;6.00;3.00;;;;;;;30.04;46.53;99287.63;5095442;28;20016;-81
2023/08/04 05:51:20;;;;;;;6.07;4.35;;;;;;;29.93;46.01;99287.88;5094557;28;20020;-81
2023/08/04 05:53:45;;;;;;;4.07;2.25;;;;;;;29.95;46.36;99285.84;5095819;28;20031;-81
2023/08/04 05:56:10;;;;;;;5.15;3.08;;;;;;;29.99;46.47;99281.81;5094279;28;20051;-81
2023/08/04 05:58:36;;;;;;;2.47;2.22;;;;;;;30.33;46.24;99287.31;5093769;28;20085;-81
2023/08/04 06:01:02;;;;;;;3.10;1.85;;;;;;;30.41;44.93;99278.38;5095092;28;20111;-81
2023/08/04 06:03:27;;;;;;;3.95;2.85;;;;;;;30.32;45.14;99272.03;5095267;28;20116;-80
2023/08/04 06:05:52;;;;;;;4.13;2.60;;;;;;;30.58;44.20;99286.66;5094578;28;20040;-80
2023/08/04 06:08:18;;;;;;;1.85;1.50;;;;;;;30.70;44.56;99286.19;5096700;28;20044;-79
2023/08/04 06:10:44;;;;;;;3.70;2.25;;;;;;;30.81;43.57;99293.22;5094521;28;20038;-80
2023/08/04 06:13:09;;;;;;;6.18;2.38;;;;;;;30.78;43.09;99276.38;5091256;28;20023;-80
2023/08/04 06:15:35;;;;;;;5.47;2.55;;;;;;;31.15;43.49;99270.56;5092685;28;21021;-80
2023/08/04 06:18:01;;;;;;;3.15;2.10;;;;;;;31.46;43.01;99296.38;5101239;28;20035;-80
2023/08/04 06:20:27;;;;;;;3.45;2.15;;;;;;;31.49;42.45;99275.06;5114429;27;20433;-80
2023/08/04 06:22:52;;;;;;;2.30;1.90;;;;;;;31.63;42.65;99289.94;5099782;28;20106;-79
2023/08/04 06:25:18;;;;;;;4.22;2.92;;;;;;;31.77;42.33;99270.19;5096838;28;20028;-80
2023/08/04 06:27:43;;;;;;;3.20;2.20;;;;;;;32.11;41.47;99282.81;5096849;28;20063;-80
2023/08/04 06:30:09;;;;;;;3.15;2.60;;;;;;;32.33;41.39;99296.75;5095688;28;20020;-80
2023/08/04 06:32:35;;;;;;;2.85;1.63;;;;;;;32.54;40.57;99281.72;5096775;28;20710;-80
2023/08/04 06:35:00;;;;;;;3.95;2.08;;;;;;;32.69;40.37;99281.84;5096090;27;20100;-81
2023/08/04 06:37:26;;;;;;;4.88;2.50;;;;;;;32.68;39.54;99259.16;5098191;28;20020;-80
2023/08/04 06:39:52;;;;;;;4.57;2.17;;;;;;;33.14;39.42;99296.69;5099562;28;20505;-80
2023/08/04 06:42:18;;;;;;;3.78;2.25;;;;;;;33.47;39.32;99271.94;5096623;28;20107;-80
2023/08/04 06:44:44;;;;;;;4.35;1.70;;;;;;;33.60;39.08;99271.31;5097238;27;20095;-81
2023/08/04 06:47:09;;;;;;;4.53;2.25;;;;;;;33.65;37.97;99277.09;5097036;28;20028;-79
2023/08/04 06:49:35;;;;;;;3.05;1.90;;;;;;;34.10;37.79;99283.59;5096945;28;20049;-80
2023/08/04 06:52:01;;;;;;;4.40;2.53;;;;;;;34.30;37.79;99272.97;5096129;28;20039;-81
2023/08/04 06:54:27;;;;;;;3.17;2.00;;;;;;;33.80;37.71;99253.44;5098144;28;20048;-80
2023/08/04 06:56:53;;;;;;;8.85;4.60;;;;;;;33.62;38.91;99264.63;5100410;28;20047;-80
2023/08/04 06:59:18;;;;;;;3.55;2.22;;;;;;;34.02;37.51;99238.00;5097761;28;20340;-81
2023/08/04 07:01:44;;;;;;;3.17;2.25;;;;;;;34.42;37.02;99268.75;5093832;28;20023;-80
2023/08/04 07:04:09;;;;;;;4.95;2.65;;;;;;;34.66;37.57;99271.41;5097017;28;20101;-80
2023/08/04 07:06:34;;;;;;;6.28;2.65;;;;;;;34.39;36.97;99260.06;5097437;28;20034;-81
2023/08/04 07:09:00;;;;;;;4.53;2.35;;;;;;;34.99;36.28;99244.47;5096251;28;20080;-81
2023/08/04 07:11:25;;;;;;;3.22;1.88;;;;;;;35.48;35.99;99249.25;5097568;28;20031;-80
2023/08/04 07:13:51;;;;;;;5.78;2.88;;;;;;;35.78;34.58;99242.81;5097664;28;20481;-80
2023/08/04 07:16:17;;;;;;;3.78;2.45;;;;;;;36.09;33.65;99258.88;5096321;28;20402;-81
2023/08/04 07:18:43;;;;;;;4.15;2.85;;;;;;;35.56;34.86;99259.25;5095520;28;20028;-80
2023/08/04 07:21:12;;;;;;;3.80;2.53;;;;;;;34.97;35.27;99260.22;5098922;28;20028;-79
2023/08/04 07:23:38;;;;;;;4.82;2.97;;;;;;;34.87;36.31;99262.44;5095864;28;20035;-82
2023/08/04 07:26:04;;;;;;;6.25;1.98;;;;;;;35.14;36.78;99261.72;5096537;28;20095;-83
2023/08/04 07:28:30;;;;;;;3.97;2.33;;;;;;;35.70;34.48;99248.38;5098638;28;20035;-81
2023/08/04 07:30:56;;;;;;;8.30;3.28;;;;;;;35.31;35.74;99259.63;5098506;28;20031;-81
2023/08/04 07:33:23;;;;;;;8.98;4.75;;;;;;;35.10;36.12;99245.88;5096057;28;20032;-80
2023/08/04 07:35:55;;;;;;;5.22;2.97;;;;;;;35.11;36.78;99262.13;5098515;28;20028;-81
2023/08/04 07:38:22;;;;;;;4.80;3.22;;;;;;;35.00;35.74;99239.84;5096701;28;20027;-80
2023/08/04 07:40:47;;;;;;;4.40;3.33;;;;;;;35.85;35.30;99247.31;5095772;28;20032;-81
2023/08/04 07:43:13;;;;;;;2.80;1.85;;;;;;;36.18;34.14;99260.44;5095294;27;20114;-81
2023/08/04 07:45:39;;;;;;;7.35;2.50;;;;;;;36.16;34.11;99243.34;5095463;28;20023;-80
2023/08/04 07:48:05;;;;;;;3.13;2.08;;;;;;;36.07;33.52;99255.50;5096249;28;20042;-81
2023/08/04 07:50:30;;;;;;;3.40;1.90;;;;;;;36.27;34.20;99220.00;5094915;28;20043;-80
2023/08/04 07:52:56;;;;;;;4.07;2.63;;;;;;;36.43;33.06;99253.66;5095979;28;20165;-80
2023/08/04 07:55:22;;;;;;;4.68;2.83;;;;;;;36.48;33.27;99253.91;5095256;28;20059;-80
2023/08/04 07:57:47;;;;;;;5.13;2.40;;;;;;;36.56;32.13;99248.22;5097496;28;20122;-80
2023/08/04 08:00:13;;;;;;;2.25;1.65;;;;;;;36.90;32.52;99246.53;5097236;28;20102;-80
2023/08/04 08:02:39;;;;;;;4.60;2.15;;;;;;;36.89;32.54;99239.31;5097873;28;20030;-82
2023/08/04 08:05:05;;;;;;;3.70;2.35;;;;;;;36.86;31.86;99237.84;5094408;28;20416;-80
2023/08/04 08:07:30;;;;;;;4.35;2.95;;;;;;;37.10;32.95;99241.09;5095347;28;20043;-80
2023/08/04 08:09:56;;;;;;;3.25;1.73;;;;;;;36.92;32.16;99230.66;5096751;28;20099;-80
2023/08/04 08:12:21;;;;;;;4.82;2.38;;;;;;;37.10;31.50;99238.34;5097016;28;20028;-81
2023/08/04 08:14:47;;;;;;;6.20;3.05;;;;;;;36.91;31.42;99221.59;5097955;28;20475;-81
2023/08/04 08:17:12;;;;;;;3.20;2.05;;;;;;;37.15;31.42;99221.25;5093990;28;20039;-82
2023/08/04 08:19:38;;;;;;;2.78;2.00;;;;;;;36.67;32.00;99217.47;5096384;28;20473;-81
2023/08/04 08:22:04;;;;;;;3.58;2.03;;;;;;;36.89;31.52;99231.94;5093640;28;20031;-81
2023/08/04 08:24:29;;;;;;;5.15;2.47;;;;;;;36.62;32.21;99197.97;5096128;28;20039;-81
2023/08/04 08:26:55;;;;;;;3.40;2.50;;;;;;;37.06;31.69;99237.06;5096317;28;20028;-81
2023/08/04 08:29:20;;;;;;;3.65;2.17;;;;;;;36.97;31.30;99230.06;5093401;28;20088;-81
2023/08/04 08:31:45;;;;;;;2.75;1.95;;;;;;;36.86;31.77;99213.13;5091938;28;20032;-81
2023/08/04 08:34:11;;;;;;;3.65;2.50;;;;;;;37.03;32.33;99205.38;5097682;28;20030;-81
2023/08/04 08:36:36;;;;;;;7.53;2.85;;;;;;;36.99;32.37;99204.06;5094765;28;20446;-82
2023/08/04 08:39:02;;;;;;;5.60;2.58;;;;;;;37.07;32.44;99201.13;5095769;28;20051;-81
2023/08/04 08:41:27;;;;;;;3.65;2.58;;;;;;;37.07;32.48;99208.53;5092277;27;20032;-81
2023/08/04 08:43:53;;;;;;;3.67;2.75;;;;;;;37.33;32.90;99199.53;5093940;28;20032;-81
2023/08/04 08:46:18;;;;;;;2.95;2.30;;;;;;;37.03;32.69;99205.38;5097205;28;20489;-81
2023/08/04 08:48:46;;;;;;;3.50;2.50;;;;;;;37.03;32.89;99207.25;5094213;28;20402;-81
2023/08/04 08:51:18;;;;;;;4.50;2.88;;;;;;;37.07;33.67;99206.63;5097234;28;20507;-82
2023/08/04 08:53:47;;;;;;;4.90;3.30;;;;;;;37.23;32.39;99201.81;5092769;28;20035;-82
2023/08/04 08:56:14;;;;;;;6.97;3.42;;;;;;;37.12;32.37;99200.50;5100580;28;20493;-80
2023/08/04 08:58:41;;;;;;;5.32;2.60;;;;;;;37.39;32.37;99201.44;5095179;28;20034;-82
2023/08/04 09:01:07;;;;;;;4.85;2.60;;;;;;;36.92;31.88;99153.72;5096255;28;20108;-82
2023/08/04 09:03:35;;;;;;;5.07;2.95;;;;;;;37.40;32.57;99186.66;5092263;28;20155;-82
2023/08/04 09:06:00;;;;;;;3.85;2.70;;;;;;;37.55;33.53;99185.59;5097095;28;20092;-80
2023/08/04 09:08:27;;;;;;;3.63;2.60;;;;;;;38.03;31.62;99179.84;5095400;28;20763;-80
2023/08/04 09:10:53;;;;;;;4.68;2.90;;;;;;;38.25;31.20;99166.72;5095149;28;20130;-81
2023/08/04 09:13:19;;;;;;;3.45;2.28;;;;;;;37.76;31.01;99177.16;5094474;28;20493;-79
2023/08/04 09:15:52;;;;;;;3.70;1.90;;;;;;;37.60;30.94;99163.78;5093652;28;20091;-79
2023/08/04 09:18:31;;;;;;;4.30;2.83;;;;;;;37.43;32.16;99160.59;5093117;28;20055;-79
2023/08/04 09:21:09;;;;;;;5.15;2.50;;;;;;;37.84;31.57;99156.81;5092210;28;20452;-78
2023/08/04 09:23:36;;;;;;;2.92;2.33;;;;;;;37.64;31.01;99148.56;5094068;28;20078;-79
2023/08/04 09:26:01;;;;;;;4.18;2.38;;;;;;;37.52;30.17;99140.09;5096965;28;20062;-78
2023/08/04 09:28:27;;;;;;;4.07;2.00;;;;;;;37.42;30.89;99158.94;5092414;28;20073;-78
2023/08/04 09:31:07;;;;;;;3.85;2.50;;;;;;;38.01;30.12;99156.38;5092557;28;20032;-79
2023/08/04 09:33:35;;;;;;;2.97;2.33;;;;;;;38.31;31.59;99145.72;5093113;28;20044;-79
2023/08/04 09:36:15;;;;;;;3.28;2.13;;;;;;;38.50;29.89;99152.25;5095657;28;20055;-79
2023/08/04 09:38:42;;;;;;;3.40;2.13;;;;;;;38.29;29.51;99129.41;5092670;28;20032;-79
2023/08/04 09:41:10;;;;;;;4.43;2.53;;;;;;;38.59;29.56;99125.25;5093688;28;20031;-79
2023/08/04 09:43:43;;;;;;;4.15;2.95;;;;;;;38.89;29.48;99133.00;5093763;28;20024;-79
2023/08/04 09:46:08;;;;;;;9.45;2.53;;;;;;;38.89;28.85;99117.28;5093277;28;20127;-81
2023/08/04 09:48:34;;;;;;;4.25;2.20;;;;;;;38.99;28.59;99119.56;5093187;28;20478;-79
2023/08/04 09:51:14;;;;;;;3.67;2.22;;;;;;;39.04;28.86;99112.31;5101415;28;20549;-79
2023/08/04 09:53:46;;;;;;;4.40;2.92;;;;;;;39.09;28.70;99130.97;5102330;28;20122;-79
2023/08/04 09:56:13;;;;;;;3.08;2.45;;;;;;;39.16;29.46;99114.38;5097085;28;20437;-80
2023/08/04 09:58:39;;;;;;;5.32;3.03;;;;;;;39.34;28.18;99108.94;5096538;28;20036;-80
2023/08/04 10:01:05;;;;;;;6.60;2.80;;;;;;;39.26;29.70;99114.72;5100602;28;20079;-80
2023/08/04 10:03:32;;;;;;;4.50;2.78;;;;;;;38.96;27.58;99076.75;5100261;27;20462;-80
2023/08/04 10:06:03;;;;;;;3.92;2.58;;;;;;;39.14;27.92;99113.75;5102255;28;20039;-81
2023/08/04 10:08:39;;;;;;;3.10;2.20;;;;;;;39.07;28.08;99094.50;5101575;28;20063;-81
2023/08/04 10:11:06;;;;;;;3.00;2.05;;;;;;;38.91;27.97;99112.41;5101389;28;20512;-81
2023/08/04 10:13:37;;;;;;;4.93;1.85;;;;;;;39.51;28.09;99102.84;5100126;28;20031;-82
2023/08/04 10:16:15;;;;;;;4.28;2.38;;;;;;;39.98;26.64;99092.25;5101615;28;20031;-82
2023/08/04 10:19:07;;;;;;;8.15;2.78;;;;;;;39.59;27.01;99105.34;5101261;28;20055;-80
2023/08/04 10:21:40;;;;;;;12.32;2.55;;;;;;;39.72;27.96;99099.72;5079135;28;20045;-80
2023/08/04 10:24:08;;;;;;;4.13;2.30;;;;;;;39.17;27.61;99089.34;5076996;28;20042;-79
2023/08/04 10:26:42;;;;;;;3.45;2.30;;;;;;;39.49;27.32;99091.22;5074277;28;20524;-80
2023/08/04 10:29:09;;;;;;;7.25;2.40;;;;;;;39.29;26.61;99061.06;5077846;28;20024;-80
2023/08/04 10:31:55;;;;;;;4.30;2.95;;;;;;;39.36;27.26;99081.13;5073955;28;20037;-80
2023/08/04 10:34:32;;;;;;;3.78;2.28;;;;;;;38.99;26.28;99046.00;5078133;28;20111;-81
2023/08/04 10:36:59;;;;;;;3.95;2.33;;;;;;;39.13;26.16;99081.75;5076307;28;20513;-81
2023/08/04 10:39:36;;;;;;;3.60;2.33;;;;;;;39.37;26.45;99075.38;5076216;28;20055;-81
2023/08/04 10:42:14;;;;;;;3.60;2.63;;;;;;;39.71;25.71;99066.81;5075475;28;20043;-80
2023/08/04 10:44:59;;;;;;;2.53;1.77;;;;;;;39.57;24.65;99044.88;5075479;28;20213;-81
2023/08/04 10:47:46;;;;;;;2.75;1.95;;;;;;;39.66;25.11;99058.41;5075208;28;20048;-80
2023/08/04 10:50:13;;;;;;;6.63;2.60;;;;;;;39.90;23.97;99048.34;5079033;28;20028;-82
2023/08/04 10:52:40;;;;;;;4.60;1.80;;;;;;;39.78;24.27;99028.97;5079365;28;20070;-82
2023/08/04 10:55:09;;;;;;;2.50;1.80;;;;;;;39.67;23.99;99027.81;5077235;28;20136;-82
2023/08/04 10:57:36;;;;;;;2.40;1.80;;;;;;;39.83;23.29;99037.38;5083867;28;20066;-81
2023/08/04 11:00:05;;;;;;;2.42;1.80;;;;;;;39.48;23.79;99026.91;5095782;28;20050;-80
2023/08/04 11:02:31;;;;;;;5.00;1.77;;;;;;;39.47;23.57;99016.97;5097401;28;20027;-81
2023/08/04 11:04:57;;;;;;;5.20;2.25;;;;;;;39.66;23.09;99028.03;5112171;27;20430;-81
2023/08/04 11:07:24;;;;;;;20.88;3.60;;;;;;;39.70;23.31;99001.66;5095905;27;20031;-81
2023/08/04 11:09:53;;;;;;;3.65;2.38;;;;;;;39.72;23.18;99013.31;5096970;28;20032;-81
2023/08/04 11:12:19;;;;;;;1.70;1.42;;;;;;;39.73;22.29;99015.00;5101079;28;20032;-81
2023/08/04 11:14:45;;;;;;;2.60;1.52;;;;;;;39.65;22.89;98998.75;5098637;28;20096;-80
2023/08/04 11:17:15;;;;;;;4.32;2.47;;;;;;;39.54;21.91;98990.16;5095018;28;20028;-81
2023/08/04 11:19:45;;;;;;;3.38;1.40;;;;;;;39.78;21.75;98993.09;5095692;28;20569;-81
2023/08/04 11:22:19;;;;;;;3.55;1.50;;;;;;;40.05;21.77;98987.25;5096962;28;20068;-81
2023/08/04 11:24:45;;;;;;;2.58;2.10;;;;;;;39.90;21.20;98974.69;5096568;28;20024;-81
2023/08/04 11:27:13;;;;;;;2.63;1.67;;;;;;;40.10;21.03;98984.63;5095812;28;20469;-81
2023/08/04 11:29:38;;;;;;;2.55;1.67;;;;;;;40.26;21.96;98986.75;5097212;28;20067;-81
2023/08/04 11:32:22;;;;;;;2.33;1.63;;;;;;;40.38;21.42;98983.16;5099428;28;20085;-81